createdAt,value
2019-04-25T00:03:07.515Z,995.48
2019-04-25T00:08:07.421Z,995.40
2019-04-25T00:13:07.267Z,995.58
2019-04-25T00:18:06.616Z,995.61
2019-04-25T00:23:07.342Z,995.71
2019-04-25T00:28:06.356Z,995.58
2019-04-25T00:33:06.336Z,995.53
2019-04-25T00:38:06.335Z,995.36
2019-04-25T00:43:05.356Z,995.33
2019-04-25T00:48:04.496Z,995.24
2019-04-25T00:53:04.355Z,995.13
2019-04-25T00:58:04.376Z,994.99
2019-04-25T01:03:03.448Z,995.03
2019-04-25T01:08:02.275Z,995.05
2019-04-25T01:13:03.053Z,995.13
2019-04-25T01:18:01.359Z,995.26
2019-04-25T01:23:00.933Z,995.37
2019-04-25T01:27:59.506Z,995.39
2019-04-25T01:32:59.512Z,995.38
2019-04-25T01:37:59.334Z,995.36
2019-04-25T01:42:59.403Z,995.68
2019-04-25T01:47:58.484Z,995.80
2019-04-25T01:52:58.729Z,995.77
2019-04-25T01:57:59.352Z,995.88
2019-04-25T02:02:58.644Z,995.98
2019-04-25T02:07:59.344Z,995.83
2019-04-25T02:12:59.900Z,995.72
2019-04-25T02:18:00.342Z,995.75
2019-04-25T02:22:58.426Z,995.65
2019-04-25T02:28:00.858Z,995.71
2019-04-25T02:33:02.610Z,995.64
2019-04-25T02:38:02.335Z,995.65
2019-04-25T02:43:00.813Z,995.73
2019-04-25T02:47:59.672Z,995.76
2019-04-25T02:52:59.783Z,995.71
2019-04-25T02:58:00.317Z,995.77
2019-04-25T03:03:00.787Z,995.64
2019-04-25T03:07:59.673Z,995.61
2019-04-25T03:13:00.315Z,995.70
2019-04-25T03:18:00.172Z,995.81
2019-04-25T03:22:59.388Z,995.78
2019-04-25T03:27:59.557Z,995.84
2019-04-25T03:33:01.024Z,995.68
2019-04-25T03:38:01.115Z,995.79
2019-04-25T03:42:59.296Z,995.87
2019-04-25T03:47:59.263Z,995.88
2019-04-25T03:52:59.356Z,996.03
2019-04-25T03:57:59.455Z,996.03
2019-04-25T04:02:58.355Z,996.11
2019-04-25T04:07:58.346Z,996.25
2019-04-25T04:12:57.435Z,996.24
2019-04-25T04:17:57.338Z,996.10
2019-04-25T04:22:56.301Z,996.17
2019-04-25T04:27:55.553Z,996.26
2019-04-25T04:32:54.650Z,996.20
2019-04-25T04:37:54.410Z,996.19
2019-04-25T04:42:54.361Z,996.12
2019-04-25T04:47:53.609Z,996.04
2019-04-25T04:52:54.410Z,996.04
2019-04-25T04:57:55.360Z,996.02
2019-04-25T05:02:55.366Z,996.18
2019-04-25T05:07:55.417Z,996.11
2019-04-25T05:12:55.509Z,996.09
2019-04-25T05:17:54.393Z,996.14
2019-04-25T05:22:55.038Z,996.11
2019-04-25T05:28:00.705Z,996.31
2019-04-25T05:32:54.362Z,996.35
2019-04-25T05:37:53.333Z,996.35
2019-04-25T05:42:52.308Z,996.41
2019-04-25T05:47:51.707Z,996.27
2019-04-25T05:52:54.035Z,996.15
2019-04-25T05:57:53.506Z,996.24
2019-04-25T06:07:51.487Z,996.53
2019-04-25T06:12:50.689Z,996.51
2019-04-25T06:17:50.434Z,996.65
2019-04-25T06:22:49.304Z,996.74
2019-04-25T06:27:56.515Z,996.72
2019-04-25T06:32:48.452Z,996.78
2019-04-25T06:37:48.444Z,996.85
2019-04-25T06:42:47.345Z,996.83
2019-04-25T06:47:46.394Z,996.91
2019-04-25T06:52:45.423Z,996.89
2019-04-25T06:57:46.882Z,996.79
2019-04-25T07:02:46.322Z,996.74
2019-04-25T07:07:46.466Z,996.80
2019-04-25T07:12:47.426Z,996.85
2019-04-25T07:17:46.460Z,996.85
2019-04-25T07:22:46.320Z,997.05
2019-04-25T07:27:45.819Z,997.14
2019-04-25T07:32:45.493Z,997.20
2019-04-25T07:37:45.295Z,997.41
2019-04-25T07:42:44.662Z,997.39
2019-04-25T07:47:44.287Z,997.35
2019-04-25T07:52:44.321Z,997.47
2019-04-25T07:57:44.194Z,997.42
2019-04-25T08:02:43.541Z,997.27
2019-04-25T08:07:43.663Z,997.33
2019-04-25T08:12:44.128Z,997.48
2019-04-25T08:17:44.143Z,997.43
2019-04-25T08:27:44.963Z,997.48
2019-04-25T08:32:44.094Z,997.58
2019-04-25T08:37:44.260Z,997.65
2019-04-25T08:42:44.043Z,997.52
2019-04-25T08:47:43.787Z,997.59
2019-04-25T08:52:42.839Z,997.77
2019-04-25T08:57:42.166Z,997.54
2019-04-25T09:02:40.619Z,997.70
2019-04-25T09:07:40.125Z,997.70
2019-04-25T09:12:40.182Z,997.65
2019-04-25T09:17:39.388Z,997.64
2019-04-25T09:22:39.941Z,997.63
2019-04-25T09:27:40.604Z,997.61
2019-04-25T09:32:39.913Z,997.53
2019-04-25T09:37:39.080Z,997.59
2019-04-25T09:42:38.118Z,997.49
2019-04-25T09:47:37.331Z,997.65
2019-04-25T09:52:37.722Z,997.65
2019-04-25T09:57:37.112Z,997.52
2019-04-25T10:02:36.887Z,997.68
2019-04-25T10:07:38.453Z,997.53
2019-04-25T10:12:37.375Z,997.52
2019-04-25T10:17:37.732Z,997.59
2019-04-25T10:22:37.962Z,997.57
2019-04-25T10:27:36.056Z,997.38
2019-04-25T10:32:35.283Z,997.50
2019-04-25T10:37:36.150Z,997.24
2019-04-25T10:42:36.071Z,997.44
2019-04-25T10:47:36.186Z,997.46
2019-04-25T10:52:37.107Z,997.50
2019-04-25T10:57:37.085Z,997.46
2019-04-25T11:02:36.300Z,997.28
2019-04-25T11:07:37.073Z,997.11
2019-04-25T11:12:36.193Z,997.19
2019-04-25T11:17:35.059Z,997.15
2019-04-25T11:22:35.071Z,997.17
2019-04-25T11:27:39.519Z,997.17
2019-04-25T11:32:35.130Z,997.12
2019-04-25T11:37:35.047Z,997.20
2019-04-25T11:42:36.077Z,997.20
2019-04-25T11:47:37.053Z,997.33
2019-04-25T11:52:36.448Z,997.21
2019-04-25T11:57:36.135Z,997.12
2019-04-25T12:02:36.333Z,997.06
2019-04-25T12:07:35.380Z,996.90
2019-04-25T12:12:37.318Z,996.79
2019-04-25T12:17:35.340Z,996.55
2019-04-25T12:22:34.403Z,996.31
2019-04-25T12:27:34.094Z,996.36
2019-04-25T12:32:35.025Z,996.34
2019-04-25T12:37:33.713Z,996.09
2019-04-25T12:42:34.372Z,996.08
2019-04-25T12:47:34.338Z,996.18
2019-04-25T12:52:33.365Z,996.20
2019-04-25T12:57:33.144Z,996.29
2019-04-25T13:02:34.449Z,996.29
2019-04-25T13:07:31.261Z,996.30
2019-04-25T13:12:30.999Z,996.35
2019-04-25T13:17:31.036Z,996.29
2019-04-25T13:22:33.111Z,996.40
2019-04-25T13:27:33.664Z,996.36
2019-04-25T13:32:31.091Z,996.44
2019-04-25T13:37:30.057Z,996.38
2019-04-25T13:42:30.082Z,996.26
2019-04-25T13:47:30.732Z,996.31
2019-04-25T13:52:31.325Z,996.22
2019-04-25T13:57:32.334Z,996.11
2019-04-25T14:02:31.439Z,995.98
2019-04-25T14:07:30.259Z,995.98
2019-04-25T14:17:33.740Z,995.84
2019-04-25T14:22:33.007Z,995.62
2019-04-25T14:32:33.882Z,995.47
2019-04-25T14:37:39.185Z,995.58
2019-04-25T14:42:33.219Z,995.57
2019-04-25T14:47:33.951Z,995.48
2019-04-25T14:52:33.248Z,995.41
2019-04-25T14:57:34.995Z,995.40
2019-04-25T15:02:34.256Z,995.44
2019-04-25T15:07:32.957Z,995.60
2019-04-25T15:12:32.239Z,995.62
2019-04-25T15:17:43.893Z,995.54
2019-04-25T15:22:32.594Z,995.56
2019-04-25T15:27:33.293Z,995.62
2019-04-25T15:32:33.014Z,995.72
2019-04-25T15:37:32.453Z,995.72
2019-04-25T15:42:34.009Z,995.60
2019-04-25T15:47:34.069Z,995.57
2019-04-25T15:52:34.267Z,995.57
2019-04-25T15:57:34.520Z,995.60
2019-04-25T16:02:32.922Z,995.41
2019-04-25T16:07:33.812Z,995.36
2019-04-25T16:12:33.124Z,995.44
2019-04-25T16:17:33.085Z,995.49
2019-04-25T16:22:32.966Z,995.49
2019-04-25T16:27:32.575Z,995.41
2019-04-25T16:32:32.442Z,995.49
2019-04-25T16:37:32.434Z,995.46
2019-04-25T16:42:31.985Z,995.56
2019-04-25T16:47:33.063Z,995.52
2019-04-25T16:52:31.987Z,995.57
2019-04-25T16:57:33.003Z,995.59
2019-04-25T17:02:36.754Z,995.53
2019-04-25T17:07:33.961Z,995.57
2019-04-25T17:12:32.203Z,995.78
2019-04-25T17:17:32.026Z,995.82
2019-04-25T17:22:30.981Z,995.95
2019-04-25T17:27:31.753Z,996.07
2019-04-25T17:32:30.697Z,996.18
2019-04-25T17:37:29.916Z,996.24
2019-04-25T17:42:29.896Z,996.45
2019-04-25T17:47:29.908Z,996.60
2019-04-25T17:52:29.909Z,996.61
2019-04-25T17:57:29.122Z,996.61
2019-04-25T18:02:28.936Z,996.79
2019-04-25T18:07:28.037Z,996.62
2019-04-25T18:12:26.974Z,996.53
2019-04-25T18:17:26.995Z,996.65
2019-04-25T18:22:26.321Z,996.59
2019-04-25T18:27:25.971Z,996.74
2019-04-25T18:32:25.203Z,997.11
2019-04-25T18:37:25.339Z,997.27
2019-04-25T18:42:24.953Z,997.20
2019-04-25T18:47:24.313Z,997.35
2019-04-25T18:52:24.061Z,997.53
2019-04-25T18:57:23.964Z,997.81
2019-04-25T19:02:25.406Z,997.90
2019-04-25T19:07:24.314Z,998.00
2019-04-25T19:12:25.241Z,998.15
2019-04-25T19:17:24.108Z,998.09
2019-04-25T19:22:25.173Z,998.14
2019-04-25T19:27:25.047Z,998.27
2019-04-25T19:32:24.958Z,998.34
2019-04-25T19:37:23.962Z,998.44
2019-04-25T19:42:23.904Z,998.46
2019-04-25T19:47:24.912Z,998.45
2019-04-25T19:52:25.343Z,998.74
2019-04-25T19:57:25.036Z,998.94
2019-04-25T20:02:25.873Z,999.01
2019-04-25T20:07:23.315Z,999.14
2019-04-25T20:12:22.950Z,999.08
2019-04-25T20:17:23.309Z,998.96
2019-04-25T20:22:23.069Z,998.95
2019-04-25T20:27:22.915Z,998.97
2019-04-25T20:32:22.908Z,998.83
2019-04-25T20:37:22.234Z,999.07
2019-04-25T20:42:21.153Z,999.01
2019-04-25T20:47:21.305Z,998.92
2019-04-25T20:52:22.943Z,999.00
2019-04-25T20:57:20.418Z,998.99
2019-04-25T21:02:20.098Z,999.06
2019-04-25T21:07:20.948Z,999.11
2019-04-25T21:12:20.083Z,999.16
2019-04-25T21:17:20.054Z,999.10
2019-04-25T21:22:19.874Z,998.99
2019-04-25T21:27:19.905Z,998.85
2019-04-25T21:32:19.855Z,998.85
2019-04-25T21:37:19.058Z,998.87
2019-04-25T21:42:18.901Z,998.86
2019-04-25T21:47:17.852Z,998.86
2019-04-25T21:52:17.931Z,999.04
2019-04-25T21:57:17.932Z,998.85
2019-04-25T22:02:16.916Z,998.92
2019-04-25T22:07:16.953Z,998.92
2019-04-25T22:12:15.872Z,999.23
2019-04-25T22:17:15.852Z,999.41
2019-04-25T22:22:15.956Z,999.45
2019-04-25T22:27:16.176Z,999.56
2019-04-25T22:32:14.833Z,999.56
2019-04-25T22:37:15.066Z,999.32
2019-04-25T22:42:14.888Z,999.42
2019-04-25T22:47:17.475Z,999.39
2019-04-25T22:52:14.861Z,999.34
2019-04-25T22:57:13.856Z,999.26
2019-04-25T23:02:13.848Z,999.31
2019-04-25T23:07:13.143Z,999.25
2019-04-25T23:12:13.876Z,999.22
2019-04-25T23:17:13.425Z,999.12
2019-04-25T23:22:12.010Z,999.17
2019-04-25T23:27:12.174Z,999.25
2019-04-25T23:32:10.870Z,999.06
2019-04-25T23:37:10.935Z,999.00
2019-04-25T23:42:09.883Z,998.83
2019-04-25T23:47:08.858Z,998.77
2019-04-25T23:52:10.903Z,998.71
2019-04-25T23:57:11.268Z,998.56
